sensor_id;sensor_type;location;lat;lon;timestamp;P1;durP1;ratioP1;P2;durP2;ratioP2
32780;SDS011;19136;47.032;15.502;2022-12-07T00:00:30;54.42;;;21.30;;
32780;SDS011;19136;47.032;15.502;2022-12-07T00:02:55;66.00;;;22.85;;
32780;SDS011;19136;47.032;15.502;2022-12-07T00:05:21;76.88;;;23.73;;
32780;SDS011;19136;47.032;15.502;2022-12-07T00:07:46;62.22;;;20.40;;
32780;SDS011;19136;47.032;15.502;2022-12-07T00:10:12;65.35;;;21.42;;
32780;SDS011;19136;47.032;15.502;2022-12-07T00:12:37;100.75;;;25.25;;
32780;SDS011;19136;47.032;15.502;2022-12-07T00:15:03;56.22;;;22.65;;
32780;SDS011;19136;47.032;15.502;2022-12-07T00:17:29;45.55;;;20.85;;
32780;SDS011;19136;47.032;15.502;2022-12-07T00:19:54;40.50;;;19.60;;
32780;SDS011;19136;47.032;15.502;2022-12-07T00:22:20;45.13;;;20.80;;
32780;SDS011;19136;47.032;15.502;2022-12-07T00:24:45;39.65;;;20.20;;
32780;SDS011;19136;47.032;15.502;2022-12-07T00:27:11;40.50;;;19.15;;
32780;SDS011;19136;47.032;15.502;2022-12-07T00:29:36;38.38;;;19.67;;
32780;SDS011;19136;47.032;15.502;2022-12-07T00:32:02;39.45;;;19.45;;
32780;SDS011;19136;47.032;15.502;2022-12-07T00:34:28;38.70;;;19.55;;
32780;SDS011;19136;47.032;15.502;2022-12-07T00:36:54;41.17;;;20.27;;
32780;SDS011;19136;47.032;15.502;2022-12-07T00:39:20;39.03;;;19.73;;
32780;SDS011;19136;47.032;15.502;2022-12-07T00:41:45;37.33;;;19.08;;
32780;SDS011;19136;47.032;15.502;2022-12-07T00:44:11;36.13;;;18.42;;
32780;SDS011;19136;47.032;15.502;2022-12-07T00:46:36;35.55;;;19.52;;
32780;SDS011;19136;47.032;15.502;2022-12-07T00:49:02;41.70;;;21.92;;
32780;SDS011;19136;47.032;15.502;2022-12-07T00:51:28;48.20;;;21.88;;
32780;SDS011;19136;47.032;15.502;2022-12-07T00:53:53;46.05;;;21.65;;
32780;SDS011;19136;47.032;15.502;2022-12-07T00:56:20;43.15;;;19.50;;
32780;SDS011;19136;47.032;15.502;2022-12-07T00:58:59;40.28;;;19.98;;
32780;SDS011;19136;47.032;15.502;2022-12-07T01:01:27;40.28;;;19.17;;
32780;SDS011;19136;47.032;15.502;2022-12-07T01:03:54;79.65;;;20.10;;
32780;SDS011;19136;47.032;15.502;2022-12-07T01:06:21;255.65;;;26.52;;
32780;SDS011;19136;47.032;15.502;2022-12-07T01:08:47;60.35;;;21.85;;
32780;SDS011;19136;47.032;15.502;2022-12-07T01:11:15;391.33;;;34.53;;
32780;SDS011;19136;47.032;15.502;2022-12-07T01:13:42;475.33;;;37.08;;
32780;SDS011;19136;47.032;15.502;2022-12-07T01:16:08;57.28;;;19.95;;
32780;SDS011;19136;47.032;15.502;2022-12-07T01:18:35;472.83;;;35.20;;
32780;SDS011;19136;47.032;15.502;2022-12-07T01:21:11;58.47;;;23.35;;
32780;SDS011;19136;47.032;15.502;2022-12-07T01:23:38;50.47;;;22.23;;
32780;SDS011;19136;47.032;15.502;2022-12-07T01:26:05;70.78;;;23.20;;
32780;SDS011;19136;47.032;15.502;2022-12-07T01:28:32;48.50;;;22.48;;
32780;SDS011;19136;47.032;15.502;2022-12-07T01:31:02;47.85;;;22.55;;
32780;SDS011;19136;47.032;15.502;2022-12-07T01:33:30;39.92;;;21.05;;
32780;SDS011;19136;47.032;15.502;2022-12-07T01:36:01;42.17;;;20.80;;
32780;SDS011;19136;47.032;15.502;2022-12-07T01:38:31;37.65;;;19.92;;
32780;SDS011;19136;47.032;15.502;2022-12-07T01:40:58;47.03;;;19.63;;
32780;SDS011;19136;47.032;15.502;2022-12-07T01:43:26;43.60;;;19.20;;
32780;SDS011;19136;47.032;15.502;2022-12-07T01:45:52;44.65;;;20.63;;
32780;SDS011;19136;47.032;15.502;2022-12-07T01:48:19;41.00;;;20.55;;
32780;SDS011;19136;47.032;15.502;2022-12-07T01:50:48;44.90;;;21.08;;
32780;SDS011;19136;47.032;15.502;2022-12-07T01:53:15;44.65;;;19.63;;
32780;SDS011;19136;47.032;15.502;2022-12-07T01:55:42;101.72;;;21.08;;
32780;SDS011;19136;47.032;15.502;2022-12-07T01:58:09;40.80;;;19.65;;
32780;SDS011;19136;47.032;15.502;2022-12-07T02:00:37;51.22;;;20.98;;
32780;SDS011;19136;47.032;15.502;2022-12-07T02:03:10;489.15;;;35.88;;
32780;SDS011;19136;47.032;15.502;2022-12-07T02:05:40;55.65;;;19.67;;
32780;SDS011;19136;47.032;15.502;2022-12-07T02:08:06;54.60;;;20.55;;
32780;SDS011;19136;47.032;15.502;2022-12-07T02:10:32;48.17;;;20.27;;
32780;SDS011;19136;47.032;15.502;2022-12-07T02:13:03;37.42;;;19.67;;
32780;SDS011;19136;47.032;15.502;2022-12-07T02:15:39;58.50;;;21.02;;
32780;SDS011;19136;47.032;15.502;2022-12-07T02:18:09;51.95;;;21.15;;
32780;SDS011;19136;47.032;15.502;2022-12-07T02:23:39;46.80;;;19.17;;
32780;SDS011;19136;47.032;15.502;2022-12-07T02:31:25;50.05;;;21.90;;
32780;SDS011;19136;47.032;15.502;2022-12-07T02:33:57;46.50;;;23.17;;
32780;SDS011;19136;47.032;15.502;2022-12-07T02:36:51;159.38;;;25.60;;
32780;SDS011;19136;47.032;15.502;2022-12-07T02:39:40;37.72;;;19.50;;
32780;SDS011;19136;47.032;15.502;2022-12-07T02:42:19;221.30;;;30.50;;
32780;SDS011;19136;47.032;15.502;2022-12-07T02:44:49;44.10;;;20.77;;
32780;SDS011;19136;47.032;15.502;2022-12-07T02:47:16;38.60;;;19.08;;
32780;SDS011;19136;47.032;15.502;2022-12-07T02:49:42;47.85;;;19.95;;
32780;SDS011;19136;47.032;15.502;2022-12-07T02:52:08;42.72;;;19.30;;
32780;SDS011;19136;47.032;15.502;2022-12-07T02:54:34;38.65;;;19.55;;
32780;SDS011;19136;47.032;15.502;2022-12-07T03:13:00;37.67;;;18.70;;
32780;SDS011;19136;47.032;15.502;2022-12-07T03:15:33;40.85;;;19.63;;
32780;SDS011;19136;47.032;15.502;2022-12-07T03:18:03;35.05;;;16.60;;
32780;SDS011;19136;47.032;15.502;2022-12-07T03:20:29;33.92;;;17.02;;
32780;SDS011;19136;47.032;15.502;2022-12-07T03:22:56;32.08;;;16.52;;
32780;SDS011;19136;47.032;15.502;2022-12-07T03:25:23;35.83;;;17.65;;
32780;SDS011;19136;47.032;15.502;2022-12-07T03:27:53;37.33;;;18.20;;
32780;SDS011;19136;47.032;15.502;2022-12-07T03:30:26;35.17;;;17.60;;
32780;SDS011;19136;47.032;15.502;2022-12-07T03:32:57;39.28;;;18.10;;
32780;SDS011;19136;47.032;15.502;2022-12-07T03:35:33;39.72;;;18.25;;
32780;SDS011;19136;47.032;15.502;2022-12-07T03:38:08;36.83;;;17.52;;
32780;SDS011;19136;47.032;15.502;2022-12-07T03:40:48;32.65;;;16.13;;
32780;SDS011;19136;47.032;15.502;2022-12-07T03:43:19;32.30;;;16.00;;
32780;SDS011;19136;47.032;15.502;2022-12-07T03:51:43;30.55;;;16.23;;
32780;SDS011;19136;47.032;15.502;2022-12-07T03:56:48;36.78;;;17.77;;
32780;SDS011;19136;47.032;15.502;2022-12-07T03:59:14;31.70;;;16.20;;
32780;SDS011;19136;47.032;15.502;2022-12-07T04:01:42;39.88;;;18.20;;
32780;SDS011;19136;47.032;15.502;2022-12-07T04:04:08;34.67;;;16.65;;
32780;SDS011;19136;47.032;15.502;2022-12-07T04:06:34;32.95;;;17.35;;
32780;SDS011;19136;47.032;15.502;2022-12-07T04:08:59;38.90;;;17.13;;
32780;SDS011;19136;47.032;15.502;2022-12-07T04:11:25;35.33;;;16.50;;
32780;SDS011;19136;47.032;15.502;2022-12-07T04:13:50;35.50;;;16.42;;
32780;SDS011;19136;47.032;15.502;2022-12-07T04:16:34;27.88;;;14.07;;
32780;SDS011;19136;47.032;15.502;2022-12-07T04:19:00;42.47;;;16.48;;
32780;SDS011;19136;47.032;15.502;2022-12-07T04:21:25;28.35;;;14.63;;
32780;SDS011;19136;47.032;15.502;2022-12-07T04:23:51;34.15;;;15.63;;
32780;SDS011;19136;47.032;15.502;2022-12-07T04:26:16;29.15;;;14.63;;
32780;SDS011;19136;47.032;15.502;2022-12-07T04:28:42;30.52;;;14.32;;
32780;SDS011;19136;47.032;15.502;2022-12-07T04:31:07;25.67;;;14.07;;
32780;SDS011;19136;47.032;15.502;2022-12-07T04:33:33;31.10;;;15.25;;
32780;SDS011;19136;47.032;15.502;2022-12-07T04:35:58;27.90;;;15.02;;
32780;SDS011;19136;47.032;15.502;2022-12-07T04:38:24;29.85;;;15.50;;
32780;SDS011;19136;47.032;15.502;2022-12-07T04:40:49;30.95;;;14.57;;
32780;SDS011;19136;47.032;15.502;2022-12-07T04:43:15;25.77;;;12.93;;
32780;SDS011;19136;47.032;15.502;2022-12-07T04:45:44;32.40;;;14.93;;
32780;SDS011;19136;47.032;15.502;2022-12-07T04:48:11;33.33;;;15.07;;
32780;SDS011;19136;47.032;15.502;2022-12-07T04:50:36;28.23;;;14.32;;
32780;SDS011;19136;47.032;15.502;2022-12-07T04:53:03;25.73;;;14.23;;
32780;SDS011;19136;47.032;15.502;2022-12-07T04:55:28;29.90;;;15.32;;
32780;SDS011;19136;47.032;15.502;2022-12-07T04:57:54;23.73;;;12.23;;
32780;SDS011;19136;47.032;15.502;2022-12-07T05:00:19;27.83;;;12.55;;
32780;SDS011;19136;47.032;15.502;2022-12-07T05:02:45;26.85;;;12.05;;
32780;SDS011;19136;47.032;15.502;2022-12-07T05:05:10;26.45;;;12.70;;
32780;SDS011;19136;47.032;15.502;2022-12-07T05:07:36;21.95;;;11.32;;
32780;SDS011;19136;47.032;15.502;2022-12-07T05:10:01;21.45;;;11.90;;
32780;SDS011;19136;47.032;15.502;2022-12-07T05:12:27;23.60;;;11.10;;
32780;SDS011;19136;47.032;15.502;2022-12-07T05:14:53;22.98;;;12.35;;
32780;SDS011;19136;47.032;15.502;2022-12-07T05:17:18;23.73;;;12.45;;
32780;SDS011;19136;47.032;15.502;2022-12-07T05:19:44;23.90;;;11.57;;
32780;SDS011;19136;47.032;15.502;2022-12-07T05:22:09;27.55;;;12.20;;
32780;SDS011;19136;47.032;15.502;2022-12-07T05:24:35;21.50;;;11.98;;
32780;SDS011;19136;47.032;15.502;2022-12-07T05:27:01;24.67;;;13.38;;
32780;SDS011;19136;47.032;15.502;2022-12-07T05:29:26;22.25;;;11.30;;
32780;SDS011;19136;47.032;15.502;2022-12-07T05:31:52;24.13;;;12.48;;
32780;SDS011;19136;47.032;15.502;2022-12-07T05:34:17;23.95;;;12.52;;
32780;SDS011;19136;47.032;15.502;2022-12-07T05:36:43;25.83;;;13.50;;
32780;SDS011;19136;47.032;15.502;2022-12-07T05:39:08;22.02;;;11.90;;
32780;SDS011;19136;47.032;15.502;2022-12-07T05:41:34;20.10;;;11.25;;
32780;SDS011;19136;47.032;15.502;2022-12-07T05:44:18;23.83;;;12.45;;
32780;SDS011;19136;47.032;15.502;2022-12-07T05:46:43;24.35;;;12.07;;
32780;SDS011;19136;47.032;15.502;2022-12-07T05:49:09;23.58;;;12.00;;
32780;SDS011;19136;47.032;15.502;2022-12-07T05:51:34;23.63;;;12.30;;
32780;SDS011;19136;47.032;15.502;2022-12-07T05:54:00;23.30;;;12.15;;
32780;SDS011;19136;47.032;15.502;2022-12-07T05:56:25;18.88;;;11.10;;
32780;SDS011;19136;47.032;15.502;2022-12-07T05:58:51;25.48;;;12.07;;
32780;SDS011;19136;47.032;15.502;2022-12-07T06:01:35;23.50;;;12.07;;
32780;SDS011;19136;47.032;15.502;2022-12-07T06:04:01;25.27;;;13.27;;
32780;SDS011;19136;47.032;15.502;2022-12-07T06:06:26;22.35;;;11.55;;
32780;SDS011;19136;47.032;15.502;2022-12-07T06:08:52;24.17;;;13.25;;
32780;SDS011;19136;47.032;15.502;2022-12-07T06:11:17;28.17;;;13.13;;
32780;SDS011;19136;47.032;15.502;2022-12-07T06:14:01;25.25;;;13.88;;
32780;SDS011;19136;47.032;15.502;2022-12-07T06:16:27;28.88;;;13.68;;
32780;SDS011;19136;47.032;15.502;2022-12-07T06:18:52;23.50;;;13.00;;
32780;SDS011;19136;47.032;15.502;2022-12-07T06:21:18;24.15;;;13.43;;
32780;SDS011;19136;47.032;15.502;2022-12-07T06:23:43;25.30;;;12.98;;
32780;SDS011;19136;47.032;15.502;2022-12-07T06:26:09;25.02;;;13.35;;
32780;SDS011;19136;47.032;15.502;2022-12-07T06:28:34;23.15;;;12.50;;
32780;SDS011;19136;47.032;15.502;2022-12-07T06:31:00;23.13;;;12.57;;
32780;SDS011;19136;47.032;15.502;2022-12-07T06:33:27;23.67;;;13.18;;
32780;SDS011;19136;47.032;15.502;2022-12-07T06:35:52;23.25;;;12.98;;
32780;SDS011;19136;47.032;15.502;2022-12-07T06:38:18;24.30;;;12.77;;
32780;SDS011;19136;47.032;15.502;2022-12-07T06:40:44;26.23;;;14.45;;
32780;SDS011;19136;47.032;15.502;2022-12-07T06:43:09;22.02;;;12.88;;
32780;SDS011;19136;47.032;15.502;2022-12-07T06:45:37;22.88;;;13.30;;
32780;SDS011;19136;47.032;15.502;2022-12-07T06:48:03;24.55;;;12.93;;
32780;SDS011;19136;47.032;15.502;2022-12-07T06:50:28;27.55;;;13.52;;
32780;SDS011;19136;47.032;15.502;2022-12-07T06:52:54;27.58;;;14.32;;
32780;SDS011;19136;47.032;15.502;2022-12-07T06:55:19;26.48;;;14.10;;
32780;SDS011;19136;47.032;15.502;2022-12-07T06:57:48;30.05;;;14.88;;
32780;SDS011;19136;47.032;15.502;2022-12-07T07:00:16;31.02;;;14.80;;
32780;SDS011;19136;47.032;15.502;2022-12-07T07:02:42;25.88;;;13.88;;
32780;SDS011;19136;47.032;15.502;2022-12-07T07:05:07;27.08;;;13.30;;
32780;SDS011;19136;47.032;15.502;2022-12-07T07:07:33;27.45;;;13.95;;
32780;SDS011;19136;47.032;15.502;2022-12-07T07:09:58;29.25;;;14.15;;
32780;SDS011;19136;47.032;15.502;2022-12-07T07:12:24;27.95;;;13.60;;
32780;SDS011;19136;47.032;15.502;2022-12-07T07:14:49;26.17;;;12.95;;
32780;SDS011;19136;47.032;15.502;2022-12-07T07:17:15;27.40;;;13.18;;
32780;SDS011;19136;47.032;15.502;2022-12-07T07:19:40;27.73;;;13.82;;
32780;SDS011;19136;47.032;15.502;2022-12-07T07:22:06;30.40;;;13.75;;
32780;SDS011;19136;47.032;15.502;2022-12-07T07:24:31;30.15;;;14.95;;
32780;SDS011;19136;47.032;15.502;2022-12-07T07:26:57;36.47;;;17.63;;
32780;SDS011;19136;47.032;15.502;2022-12-07T07:29:22;32.33;;;15.68;;
32780;SDS011;19136;47.032;15.502;2022-12-07T07:31:48;30.10;;;15.50;;
32780;SDS011;19136;47.032;15.502;2022-12-07T07:34:13;29.52;;;15.57;;
32780;SDS011;19136;47.032;15.502;2022-12-07T07:36:39;41.40;;;18.88;;
32780;SDS011;19136;47.032;15.502;2022-12-07T07:39:04;32.00;;;15.98;;
32780;SDS011;19136;47.032;15.502;2022-12-07T07:41:30;29.10;;;14.80;;
32780;SDS011;19136;47.032;15.502;2022-12-07T07:43:56;32.35;;;15.68;;
32780;SDS011;19136;47.032;15.502;2022-12-07T07:46:22;27.65;;;15.48;;
32780;SDS011;19136;47.032;15.502;2022-12-07T07:48:47;31.58;;;15.32;;
32780;SDS011;19136;47.032;15.502;2022-12-07T07:51:13;32.83;;;15.95;;
32780;SDS011;19136;47.032;15.502;2022-12-07T07:53:39;36.50;;;17.92;;
32780;SDS011;19136;47.032;15.502;2022-12-07T07:56:04;31.20;;;16.00;;
32780;SDS011;19136;47.032;15.502;2022-12-07T07:58:30;33.05;;;16.40;;
32780;SDS011;19136;47.032;15.502;2022-12-07T08:00:55;32.28;;;15.93;;
32780;SDS011;19136;47.032;15.502;2022-12-07T08:03:21;28.80;;;15.25;;
32780;SDS011;19136;47.032;15.502;2022-12-07T08:05:46;30.60;;;15.35;;
32780;SDS011;19136;47.032;15.502;2022-12-07T08:08:12;33.10;;;16.40;;
32780;SDS011;19136;47.032;15.502;2022-12-07T08:10:37;32.65;;;16.85;;
32780;SDS011;19136;47.032;15.502;2022-12-07T08:13:03;41.85;;;16.75;;
32780;SDS011;19136;47.032;15.502;2022-12-07T08:15:42;32.75;;;17.25;;
32780;SDS011;19136;47.032;15.502;2022-12-07T08:18:09;34.60;;;17.35;;
32780;SDS011;19136;47.032;15.502;2022-12-07T08:20:34;36.92;;;17.27;;
32780;SDS011;19136;47.032;15.502;2022-12-07T08:23:01;31.40;;;17.10;;
32780;SDS011;19136;47.032;15.502;2022-12-07T08:25:27;39.33;;;20.10;;
32780;SDS011;19136;47.032;15.502;2022-12-07T08:27:53;38.05;;;17.20;;
32780;SDS011;19136;47.032;15.502;2022-12-07T08:30:19;33.55;;;19.33;;
32780;SDS011;19136;47.032;15.502;2022-12-07T08:32:45;37.33;;;18.15;;
32780;SDS011;19136;47.032;15.502;2022-12-07T08:35:11;38.72;;;18.50;;
32780;SDS011;19136;47.032;15.502;2022-12-07T08:37:39;39.03;;;16.75;;
32780;SDS011;19136;47.032;15.502;2022-12-07T08:40:05;38.60;;;18.60;;
32780;SDS011;19136;47.032;15.502;2022-12-07T08:42:32;37.53;;;18.67;;
32780;SDS011;19136;47.032;15.502;2022-12-07T08:45:09;31.83;;;16.67;;
32780;SDS011;19136;47.032;15.502;2022-12-07T08:47:37;39.13;;;17.17;;
32780;SDS011;19136;47.032;15.502;2022-12-07T08:50:05;39.20;;;17.42;;
32780;SDS011;19136;47.032;15.502;2022-12-07T08:52:32;30.88;;;16.13;;
32780;SDS011;19136;47.032;15.502;2022-12-07T08:54:59;34.28;;;17.42;;
32780;SDS011;19136;47.032;15.502;2022-12-07T08:57:25;30.05;;;17.27;;
32780;SDS011;19136;47.032;15.502;2022-12-07T08:59:51;35.63;;;17.92;;
32780;SDS011;19136;47.032;15.502;2022-12-07T09:02:17;31.92;;;17.00;;
32780;SDS011;19136;47.032;15.502;2022-12-07T09:04:42;31.65;;;17.98;;
32780;SDS011;19136;47.032;15.502;2022-12-07T09:07:08;34.42;;;16.50;;
32780;SDS011;19136;47.032;15.502;2022-12-07T09:09:34;51.67;;;24.02;;
32780;SDS011;19136;47.032;15.502;2022-12-07T09:11:59;50.83;;;21.30;;
32780;SDS011;19136;47.032;15.502;2022-12-07T09:14:25;40.75;;;22.17;;
32780;SDS011;19136;47.032;15.502;2022-12-07T09:16:50;42.55;;;18.23;;
32780;SDS011;19136;47.032;15.502;2022-12-07T09:19:16;41.00;;;18.55;;
32780;SDS011;19136;47.032;15.502;2022-12-07T09:21:41;42.13;;;19.75;;
32780;SDS011;19136;47.032;15.502;2022-12-07T09:24:07;38.00;;;18.38;;
32780;SDS011;19136;47.032;15.502;2022-12-07T09:26:34;34.88;;;18.05;;
32780;SDS011;19136;47.032;15.502;2022-12-07T09:29:00;35.65;;;17.67;;
32780;SDS011;19136;47.032;15.502;2022-12-07T09:31:26;34.20;;;18.05;;
32780;SDS011;19136;47.032;15.502;2022-12-07T09:33:53;35.28;;;17.98;;
32780;SDS011;19136;47.032;15.502;2022-12-07T09:36:23;31.08;;;17.52;;
32780;SDS011;19136;47.032;15.502;2022-12-07T09:38:53;32.78;;;17.75;;
32780;SDS011;19136;47.032;15.502;2022-12-07T09:41:18;34.35;;;17.98;;
32780;SDS011;19136;47.032;15.502;2022-12-07T09:43:44;42.10;;;20.25;;
32780;SDS011;19136;47.032;15.502;2022-12-07T09:46:13;33.45;;;18.23;;
32780;SDS011;19136;47.032;15.502;2022-12-07T09:48:41;40.25;;;19.02;;
32780;SDS011;19136;47.032;15.502;2022-12-07T09:51:14;38.83;;;18.80;;
32780;SDS011;19136;47.032;15.502;2022-12-07T09:53:42;37.47;;;19.05;;
32780;SDS011;19136;47.032;15.502;2022-12-07T09:56:10;37.97;;;19.60;;
32780;SDS011;19136;47.032;15.502;2022-12-07T09:58:38;40.20;;;21.00;;
32780;SDS011;19136;47.032;15.502;2022-12-07T10:01:19;43.90;;;22.67;;
32780;SDS011;19136;47.032;15.502;2022-12-07T10:03:50;43.22;;;21.88;;
32780;SDS011;19136;47.032;15.502;2022-12-07T10:06:17;36.97;;;19.58;;
32780;SDS011;19136;47.032;15.502;2022-12-07T10:08:43;37.03;;;19.35;;
32780;SDS011;19136;47.032;15.502;2022-12-07T10:11:08;35.53;;;17.70;;
32780;SDS011;19136;47.032;15.502;2022-12-07T10:13:43;45.78;;;21.80;;
32780;SDS011;19136;47.032;15.502;2022-12-07T10:18:57;44.72;;;22.05;;
32780;SDS011;19136;47.032;15.502;2022-12-07T10:21:59;40.83;;;18.35;;
32780;SDS011;19136;47.032;15.502;2022-12-07T10:24:30;47.13;;;21.00;;
32780;SDS011;19136;47.032;15.502;2022-12-07T10:26:55;47.03;;;21.98;;
32780;SDS011;19136;47.032;15.502;2022-12-07T10:29:31;41.00;;;20.65;;
32780;SDS011;19136;47.032;15.502;2022-12-07T10:32:03;39.53;;;21.08;;
32780;SDS011;19136;47.032;15.502;2022-12-07T10:37:17;46.20;;;22.58;;
32780;SDS011;19136;47.032;15.502;2022-12-07T10:39:55;41.25;;;19.70;;
32780;SDS011;19136;47.032;15.502;2022-12-07T10:47:55;45.33;;;20.58;;
32780;SDS011;19136;47.032;15.502;2022-12-07T10:51:14;45.92;;;20.25;;
32780;SDS011;19136;47.032;15.502;2022-12-07T10:53:40;43.60;;;19.02;;
32780;SDS011;19136;47.032;15.502;2022-12-07T11:01:54;49.75;;;23.05;;
32780;SDS011;19136;47.032;15.502;2022-12-07T11:04:27;46.97;;;21.50;;
32780;SDS011;19136;47.032;15.502;2022-12-07T11:09:50;43.33;;;20.20;;
32780;SDS011;19136;47.032;15.502;2022-12-07T11:21:45;52.72;;;21.55;;
32780;SDS011;19136;47.032;15.502;2022-12-07T11:23:55;36.75;;;18.23;;
32780;SDS011;19136;47.032;15.502;2022-12-07T11:37:36;37.85;;;18.15;;
32780;SDS011;19136;47.032;15.502;2022-12-07T11:42:36;38.85;;;17.10;;
32780;SDS011;19136;47.032;15.502;2022-12-07T11:45:13;35.63;;;16.80;;
32780;SDS011;19136;47.032;15.502;2022-12-07T11:47:53;52.75;;;19.20;;
32780;SDS011;19136;47.032;15.502;2022-12-07T11:53:20;34.08;;;17.33;;
32780;SDS011;19136;47.032;15.502;2022-12-07T12:06:43;37.85;;;17.63;;
32780;SDS011;19136;47.032;15.502;2022-12-07T12:19:35;36.10;;;18.15;;
32780;SDS011;19136;47.032;15.502;2022-12-07T12:22:10;46.33;;;18.27;;
32780;SDS011;19136;47.032;15.502;2022-12-07T12:24:39;34.45;;;17.63;;
32780;SDS011;19136;47.032;15.502;2022-12-07T12:27:07;36.47;;;18.27;;
32780;SDS011;19136;47.032;15.502;2022-12-07T12:32:07;33.78;;;18.15;;
32780;SDS011;19136;47.032;15.502;2022-12-07T12:34:39;34.75;;;18.65;;
32780;SDS011;19136;47.032;15.502;2022-12-07T12:40:23;38.03;;;19.17;;
32780;SDS011;19136;47.032;15.502;2022-12-07T12:42:56;38.47;;;18.52;;
32780;SDS011;19136;47.032;15.502;2022-12-07T12:45:22;33.75;;;16.73;;
32780;SDS011;19136;47.032;15.502;2022-12-07T12:48:26;30.13;;;15.70;;
32780;SDS011;19136;47.032;15.502;2022-12-07T12:51:55;33.05;;;17.23;;
32780;SDS011;19136;47.032;15.502;2022-12-07T12:54:08;29.58;;;17.05;;
32780;SDS011;19136;47.032;15.502;2022-12-07T12:57:21;27.80;;;15.00;;
32780;SDS011;19136;47.032;15.502;2022-12-07T13:04:57;31.60;;;17.95;;
32780;SDS011;19136;47.032;15.502;2022-12-07T13:10:25;37.88;;;19.05;;
32780;SDS011;19136;47.032;15.502;2022-12-07T13:15:47;41.70;;;19.08;;
32780;SDS011;19136;47.032;15.502;2022-12-07T13:18:24;41.28;;;21.23;;
32780;SDS011;19136;47.032;15.502;2022-12-07T13:20:52;39.70;;;20.02;;
32780;SDS011;19136;47.032;15.502;2022-12-07T13:23:24;38.53;;;20.45;;
32780;SDS011;19136;47.032;15.502;2022-12-07T13:29:17;39.63;;;20.42;;
32780;SDS011;19136;47.032;15.502;2022-12-07T13:31:51;36.60;;;19.20;;
32780;SDS011;19136;47.032;15.502;2022-12-07T13:34:29;45.70;;;21.48;;
32780;SDS011;19136;47.032;15.502;2022-12-07T13:36:57;43.33;;;22.40;;
32780;SDS011;19136;47.032;15.502;2022-12-07T13:39:25;35.28;;;19.85;;
32780;SDS011;19136;47.032;15.502;2022-12-07T13:42:06;38.90;;;20.98;;
32780;SDS011;19136;47.032;15.502;2022-12-07T13:44:38;47.67;;;25.20;;
32780;SDS011;19136;47.032;15.502;2022-12-07T13:47:16;43.47;;;22.85;;
32780;SDS011;19136;47.032;15.502;2022-12-07T13:49:50;57.85;;;23.08;;
32780;SDS011;19136;47.032;15.502;2022-12-07T13:57:21;48.05;;;24.48;;
32780;SDS011;19136;47.032;15.502;2022-12-07T13:59:47;41.45;;;23.25;;
32780;SDS011;19136;47.032;15.502;2022-12-07T14:02:31;55.65;;;24.20;;
32780;SDS011;19136;47.032;15.502;2022-12-07T14:05:15;55.78;;;25.83;;
32780;SDS011;19136;47.032;15.502;2022-12-07T14:07:53;45.67;;;24.13;;
32780;SDS011;19136;47.032;15.502;2022-12-07T14:10:28;44.80;;;22.83;;
32780;SDS011;19136;47.032;15.502;2022-12-07T14:12:58;39.95;;;21.33;;
32780;SDS011;19136;47.032;15.502;2022-12-07T14:15:29;50.40;;;23.10;;
32780;SDS011;19136;47.032;15.502;2022-12-07T14:17:59;41.53;;;21.38;;
32780;SDS011;19136;47.032;15.502;2022-12-07T14:23:04;37.30;;;21.55;;
32780;SDS011;19136;47.032;15.502;2022-12-07T14:25:46;40.38;;;21.50;;
32780;SDS011;19136;47.032;15.502;2022-12-07T14:28:29;36.35;;;20.52;;
32780;SDS011;19136;47.032;15.502;2022-12-07T14:30:56;39.75;;;22.25;;
32780;SDS011;19136;47.032;15.502;2022-12-07T14:33:22;41.53;;;21.33;;
32780;SDS011;19136;47.032;15.502;2022-12-07T14:35:49;39.08;;;21.27;;
32780;SDS011;19136;47.032;15.502;2022-12-07T14:38:15;39.22;;;21.63;;
32780;SDS011;19136;47.032;15.502;2022-12-07T14:40:40;43.03;;;24.02;;
32780;SDS011;19136;47.032;15.502;2022-12-07T14:43:09;42.70;;;21.40;;
32780;SDS011;19136;47.032;15.502;2022-12-07T14:45:37;40.33;;;21.10;;
32780;SDS011;19136;47.032;15.502;2022-12-07T14:48:04;41.95;;;19.55;;
32780;SDS011;19136;47.032;15.502;2022-12-07T14:50:30;49.10;;;24.52;;
32780;SDS011;19136;47.032;15.502;2022-12-07T14:53:03;42.58;;;24.25;;
32780;SDS011;19136;47.032;15.502;2022-12-07T14:55:36;38.60;;;22.23;;
32780;SDS011;19136;47.032;15.502;2022-12-07T14:58:02;50.65;;;25.25;;
32780;SDS011;19136;47.032;15.502;2022-12-07T15:00:27;53.70;;;25.90;;
32780;SDS011;19136;47.032;15.502;2022-12-07T15:02:53;53.28;;;24.77;;
32780;SDS011;19136;47.032;15.502;2022-12-07T15:05:19;56.22;;;26.63;;
32780;SDS011;19136;47.032;15.502;2022-12-07T15:07:46;45.78;;;24.73;;
32780;SDS011;19136;47.032;15.502;2022-12-07T15:10:19;43.17;;;23.45;;
32780;SDS011;19136;47.032;15.502;2022-12-07T15:13:01;55.60;;;26.40;;
32780;SDS011;19136;47.032;15.502;2022-12-07T15:15:47;51.33;;;27.23;;
32780;SDS011;19136;47.032;15.502;2022-12-07T15:18:13;50.20;;;24.63;;
32780;SDS011;19136;47.032;15.502;2022-12-07T15:20:39;46.20;;;24.05;;
32780;SDS011;19136;47.032;15.502;2022-12-07T15:23:05;58.53;;;26.42;;
32780;SDS011;19136;47.032;15.502;2022-12-07T15:25:30;47.70;;;24.92;;
32780;SDS011;19136;47.032;15.502;2022-12-07T15:27:56;48.22;;;23.52;;
32780;SDS011;19136;47.032;15.502;2022-12-07T15:30:21;45.38;;;24.83;;
32780;SDS011;19136;47.032;15.502;2022-12-07T15:32:50;51.50;;;25.08;;
32780;SDS011;19136;47.032;15.502;2022-12-07T15:35:16;53.50;;;26.17;;
32780;SDS011;19136;47.032;15.502;2022-12-07T15:37:41;45.92;;;23.40;;
32780;SDS011;19136;47.032;15.502;2022-12-07T15:40:07;38.92;;;21.25;;
32780;SDS011;19136;47.032;15.502;2022-12-07T15:42:33;42.53;;;21.60;;
32780;SDS011;19136;47.032;15.502;2022-12-07T15:45:00;49.83;;;23.90;;
32780;SDS011;19136;47.032;15.502;2022-12-07T15:47:33;44.33;;;23.10;;
32780;SDS011;19136;47.032;15.502;2022-12-07T15:50:02;42.10;;;21.23;;
32780;SDS011;19136;47.032;15.502;2022-12-07T15:52:29;51.83;;;20.70;;
32780;SDS011;19136;47.032;15.502;2022-12-07T15:54:55;45.67;;;22.15;;
32780;SDS011;19136;47.032;15.502;2022-12-07T15:57:20;46.83;;;24.55;;
32780;SDS011;19136;47.032;15.502;2022-12-07T15:59:46;46.42;;;25.10;;
32780;SDS011;19136;47.032;15.502;2022-12-07T16:02:12;42.67;;;21.35;;
32780;SDS011;19136;47.032;15.502;2022-12-07T16:04:38;43.88;;;21.85;;
32780;SDS011;19136;47.032;15.502;2022-12-07T16:07:03;43.38;;;22.65;;
32780;SDS011;19136;47.032;15.502;2022-12-07T16:09:29;46.00;;;23.02;;
32780;SDS011;19136;47.032;15.502;2022-12-07T16:11:54;38.88;;;21.20;;
32780;SDS011;19136;47.032;15.502;2022-12-07T16:14:20;53.80;;;26.48;;
32780;SDS011;19136;47.032;15.502;2022-12-07T16:16:46;47.65;;;23.98;;
32780;SDS011;19136;47.032;15.502;2022-12-07T16:19:12;43.95;;;24.67;;
32780;SDS011;19136;47.032;15.502;2022-12-07T16:21:37;44.67;;;23.20;;
32780;SDS011;19136;47.032;15.502;2022-12-07T16:24:03;45.10;;;23.05;;